createdAt,value
2022-12-22T00:02:21.145Z,53.50
2022-12-22T00:07:42.875Z,44.92
2022-12-22T00:13:05.262Z,55.30
2022-12-22T00:18:33.458Z,61.70
2022-12-22T00:23:55.025Z,69.30
2022-12-22T00:29:17.642Z,59.78
2022-12-22T00:34:40.799Z,53.55
2022-12-22T00:40:01.737Z,57.50
2022-12-22T00:45:23.362Z,53.97
2022-12-22T00:50:52.225Z,44.63
2022-12-22T00:56:13.219Z,52.92
2022-12-22T01:01:34.418Z,51.13
2022-12-22T01:06:55.567Z,49.53
2022-12-22T01:12:16.997Z,44.20
2022-12-22T01:17:38.170Z,46.58
2022-12-22T01:22:59.531Z,52.00
2022-12-22T01:28:21.120Z,60.15
2022-12-22T01:33:42.181Z,69.72
2022-12-22T01:39:03.686Z,67.05
2022-12-22T01:44:34.197Z,73.00
2022-12-22T01:50:01.509Z,70.20
2022-12-22T01:55:31.221Z,77.68
2022-12-22T02:00:52.542Z,80.47
2022-12-22T02:06:29.903Z,79.85
2022-12-22T02:12:23.228Z,90.60
2022-12-22T02:18:10.970Z,94.97
2022-12-22T02:24:10.760Z,101.15
2022-12-22T02:29:35.609Z,89.88
2022-12-22T02:34:58.152Z,83.23
2022-12-22T02:40:42.678Z,95.35
2022-12-22T02:46:03.796Z,97.00
2022-12-22T02:51:38.031Z,93.93
2022-12-22T02:56:59.705Z,100.80
2022-12-22T03:02:21.834Z,102.65
2022-12-22T03:07:43.114Z,104.90
2022-12-22T03:13:04.995Z,111.57
2022-12-22T03:18:28.195Z,108.68
2022-12-22T03:23:49.172Z,120.93
2022-12-22T03:28:52.472Z,111.68
2022-12-22T03:33:55.278Z,111.95
2022-12-22T03:38:57.861Z,115.20
2022-12-22T03:44:19.124Z,125.32
2022-12-22T03:49:23.016Z,116.18
2022-12-22T03:54:26.756Z,143.73
2022-12-22T03:59:29.475Z,145.93
2022-12-22T04:04:32.176Z,128.10
2022-12-22T04:09:35.137Z,187.15
2022-12-22T04:14:37.811Z,142.80
2022-12-22T04:19:40.868Z,137.18
2022-12-22T04:24:43.892Z,130.65
2022-12-22T04:29:47.239Z,148.10
2022-12-22T04:34:49.793Z,236.20
2022-12-22T04:39:52.379Z,151.88
2022-12-22T04:44:54.898Z,163.50
2022-12-22T04:49:57.513Z,141.32
2022-12-22T04:55:00.212Z,193.27
2022-12-22T05:00:04.572Z,162.98
2022-12-22T05:05:07.797Z,193.88
2022-12-22T05:10:11.177Z,137.73
2022-12-22T05:15:13.735Z,184.13
2022-12-22T05:20:17.576Z,165.23
2022-12-22T05:25:20.453Z,164.30
2022-12-22T05:30:23.682Z,150.68
2022-12-22T05:35:26.812Z,151.38
2022-12-22T05:40:29.692Z,152.85
2022-12-22T05:45:32.244Z,178.63
2022-12-22T05:50:34.876Z,144.00
2022-12-22T05:55:40.522Z,139.88
2022-12-22T06:00:49.237Z,162.00
2022-12-22T06:05:52.234Z,149.98
2022-12-22T06:10:58.864Z,114.80
2022-12-22T06:16:01.381Z,142.77
2022-12-22T06:21:05.540Z,140.20
2022-12-22T06:26:08.867Z,122.70
2022-12-22T06:31:12.186Z,125.43
2022-12-22T06:36:15.792Z,123.05
2022-12-22T06:41:38.360Z,123.85
2022-12-22T06:46:59.506Z,138.70
2022-12-22T06:52:07.778Z,151.32
2022-12-22T06:57:10.856Z,156.65
2022-12-22T07:02:13.699Z,217.55
2022-12-22T07:07:18.465Z,196.07
2022-12-22T07:12:22.569Z,231.83
2022-12-22T07:17:25.104Z,260.03
2022-12-22T07:22:30.481Z,273.80
2022-12-22T07:27:33.618Z,234.02
2022-12-22T07:32:37.065Z,250.02
2022-12-22T07:37:39.692Z,214.52
2022-12-22T07:42:44.915Z,216.63
2022-12-22T07:47:48.693Z,206.50
2022-12-22T07:53:02.880Z,161.35
2022-12-22T07:58:06.406Z,184.15
2022-12-22T08:03:10.567Z,180.55
2022-12-22T08:08:13.748Z,184.45
2022-12-22T08:13:16.830Z,176.70
2022-12-22T08:18:39.045Z,180.68
2022-12-22T08:23:41.855Z,162.65
2022-12-22T08:28:58.758Z,171.63
2022-12-22T08:34:04.802Z,173.65
2022-12-22T08:39:08.190Z,143.68
2022-12-22T08:44:12.068Z,145.50
2022-12-22T08:49:14.759Z,118.07
2022-12-22T08:54:17.665Z,89.35
2022-12-22T08:59:20.745Z,77.28
2022-12-22T09:04:25.606Z,70.18
2022-12-22T09:09:31.768Z,57.40
2022-12-22T09:14:34.572Z,67.13
2022-12-22T09:19:37.288Z,54.65
2022-12-22T09:24:39.993Z,90.85
2022-12-22T09:29:43.128Z,70.72
2022-12-22T09:34:45.828Z,58.95
2022-12-22T09:39:48.620Z,51.28
2022-12-22T09:44:51.966Z,62.30
2022-12-22T09:49:56.561Z,67.25
2022-12-22T09:54:59.174Z,48.58
2022-12-22T10:00:14.708Z,61.78
2022-12-22T10:05:28.410Z,52.45
2022-12-22T10:10:32.909Z,55.80
2022-12-22T10:15:39.366Z,52.28
2022-12-22T10:20:43.455Z,59.03
2022-12-22T10:26:31.941Z,43.53
2022-12-22T10:31:39.799Z,35.25
2022-12-22T10:36:57.332Z,39.05
2022-12-22T10:42:09.363Z,39.90
2022-12-22T10:47:18.243Z,41.30
2022-12-22T10:52:30.077Z,39.70
2022-12-22T10:57:33.318Z,35.47
2022-12-22T11:02:39.641Z,56.13
2022-12-22T11:07:49.289Z,40.88
2022-12-22T11:13:11.832Z,32.67
2022-12-22T11:18:17.527Z,31.05
2022-12-22T11:23:48.214Z,19.08
2022-12-22T11:29:16.175Z,43.13
2022-12-22T11:34:43.656Z,28.05
2022-12-22T11:39:59.610Z,31.02
2022-12-22T11:45:20.552Z,34.25
2022-12-22T11:51:01.920Z,29.30
2022-12-22T11:56:22.096Z,31.65
2022-12-22T12:01:43.814Z,27.45
2022-12-22T12:07:08.132Z,29.88
2022-12-22T12:17:41.852Z,36.92
2022-12-22T12:23:22.317Z,38.90
2022-12-22T12:28:36.777Z,32.78
2022-12-22T12:34:02.174Z,51.70
2022-12-22T12:39:28.057Z,41.17
2022-12-22T12:44:39.604Z,37.83
2022-12-22T12:50:03.347Z,40.35
2022-12-22T12:55:31.914Z,40.90
2022-12-22T13:00:58.824Z,25.42
2022-12-22T13:06:04.645Z,23.38
2022-12-22T13:11:07.124Z,20.92
2022-12-22T13:16:15.823Z,27.40
2022-12-22T13:21:52.312Z,29.27
2022-12-22T13:26:52.137Z,33.47
2022-12-22T13:32:04.979Z,29.77
2022-12-22T13:37:39.440Z,32.30
2022-12-22T13:42:57.131Z,38.42
2022-12-22T13:48:01.708Z,38.10
2022-12-22T13:53:07.571Z,37.45
2022-12-22T13:58:29.777Z,40.33
2022-12-22T14:03:59.012Z,28.90
2022-12-22T14:09:21.014Z,30.20
2022-12-22T14:14:29.424Z,32.58
2022-12-22T14:19:36.630Z,35.92
2022-12-22T14:24:48.053Z,43.10
2022-12-22T14:29:51.330Z,39.50
2022-12-22T14:34:54.484Z,42.13
2022-12-22T14:39:58.653Z,41.08
2022-12-22T14:45:01.181Z,39.87
2022-12-22T14:50:25.069Z,35.58
2022-12-22T14:55:27.603Z,36.20
2022-12-22T15:00:42.444Z,37.03
2022-12-22T15:05:45.542Z,45.80
2022-12-22T15:10:48.105Z,38.72
2022-12-22T15:15:53.860Z,46.65
2022-12-22T15:20:57.147Z,33.80
2022-12-22T15:25:59.796Z,39.47
2022-12-22T15:31:03.851Z,42.10
2022-12-22T15:36:09.635Z,58.33
2022-12-22T15:41:12.195Z,55.90
2022-12-22T15:46:18.111Z,56.28
2022-12-22T15:51:24.161Z,70.85
2022-12-22T15:56:28.290Z,69.75
2022-12-22T16:01:31.134Z,75.25
2022-12-22T16:06:33.690Z,72.65
2022-12-22T16:11:38.265Z,70.32
2022-12-22T16:21:49.613Z,73.10
2022-12-22T16:26:52.478Z,69.18
2022-12-22T16:32:21.478Z,70.82
2022-12-22T16:37:26.482Z,71.80
2022-12-22T16:47:53.117Z,84.40
2022-12-22T16:52:55.889Z,80.60
2022-12-22T16:57:58.482Z,83.75
2022-12-22T17:03:04.268Z,78.60
2022-12-22T17:08:08.518Z,70.20
2022-12-22T17:13:11.853Z,69.80
2022-12-22T17:18:19.438Z,66.78
2022-12-22T17:23:28.725Z,75.78
2022-12-22T17:28:31.470Z,63.83
2022-12-22T17:33:34.279Z,68.47
2022-12-22T17:38:38.176Z,59.88
2022-12-22T17:43:41.042Z,62.38
2022-12-22T17:48:44.837Z,58.67
2022-12-22T17:53:47.776Z,55.00
2022-12-22T17:58:50.670Z,56.40
2022-12-22T18:03:53.704Z,52.53
2022-12-22T18:08:56.779Z,50.10
2022-12-22T18:14:00.302Z,53.72
2022-12-22T18:19:03.079Z,63.03
2022-12-22T18:24:06.245Z,56.00
2022-12-22T18:29:18.712Z,58.38
2022-12-22T18:34:24.490Z,51.72
2022-12-22T18:39:27.271Z,56.85
2022-12-22T18:44:30.168Z,52.03
2022-12-22T18:49:33.333Z,58.95
2022-12-22T18:54:38.589Z,55.25
2022-12-22T18:59:41.490Z,45.13
2022-12-22T19:04:44.243Z,50.55
2022-12-22T19:09:47.489Z,54.05
2022-12-22T19:14:52.770Z,57.63
2022-12-22T19:19:56.459Z,48.17
2022-12-22T19:24:59.388Z,56.03
2022-12-22T19:30:04.399Z,58.65
2022-12-22T19:35:15.418Z,53.70
2022-12-22T19:40:19.805Z,46.10
2022-12-22T19:45:43.634Z,52.45
2022-12-22T19:50:47.519Z,46.28
2022-12-22T19:55:55.487Z,49.78
2022-12-22T20:00:58.707Z,56.60
2022-12-22T20:06:01.857Z,68.82
2022-12-22T20:11:07.304Z,57.38
2022-12-22T20:16:14.596Z,70.03
2022-12-22T20:21:28.360Z,81.97
2022-12-22T20:26:32.583Z,67.93
2022-12-22T20:31:36.592Z,78.47
2022-12-22T20:36:39.356Z,114.37
2022-12-22T20:41:47.072Z,118.18
2022-12-22T20:46:53.194Z,126.45
2022-12-22T20:51:58.115Z,120.97
2022-12-22T20:57:00.672Z,96.90
2022-12-22T21:02:04.143Z,89.72
2022-12-22T21:07:07.084Z,142.27
2022-12-22T21:12:09.626Z,126.05
2022-12-22T21:17:21.730Z,109.07
2022-12-22T21:22:24.348Z,112.28
2022-12-22T21:27:29.975Z,96.38
2022-12-22T21:32:32.591Z,116.75
2022-12-22T21:37:35.956Z,97.28
2022-12-22T21:42:38.501Z,119.13
2022-12-22T21:47:42.196Z,137.05
2022-12-22T21:52:51.130Z,131.80
2022-12-22T21:57:53.903Z,125.70
2022-12-22T22:02:57.558Z,151.88
2022-12-22T22:08:02.990Z,81.07
2022-12-22T22:13:06.078Z,134.85
2022-12-22T22:18:17.751Z,130.88
2022-12-22T22:23:20.661Z,126.65
2022-12-22T22:28:23.295Z,114.80
2022-12-22T22:33:25.882Z,104.38
2022-12-22T22:38:30.573Z,99.78
2022-12-22T22:43:34.209Z,98.75
2022-12-22T22:48:37.302Z,56.88
2022-12-22T22:53:39.881Z,78.22
2022-12-22T22:58:42.655Z,66.55
2022-12-22T23:03:45.534Z,79.00
2022-12-22T23:08:49.175Z,77.40
2022-12-22T23:13:56.093Z,72.63
2022-12-22T23:18:58.659Z,54.45
2022-12-22T23:24:01.874Z,59.45
2022-12-22T23:29:04.455Z,53.25
2022-12-22T23:34:06.969Z,56.88
2022-12-22T23:39:09.567Z,72.45
2022-12-22T23:44:12.750Z,48.25
2022-12-22T23:49:15.322Z,63.10
2022-12-22T23:54:17.850Z,75.70
2022-12-22T23:59:20.597Z,65.60
